createdAt,value
2024-03-05T00:01:18.286Z,25.92
2024-03-05T00:04:22.219Z,25.40
2024-03-05T00:07:24.870Z,27.27
2024-03-05T00:10:27.520Z,28.20
2024-03-05T00:13:30.251Z,25.73
2024-03-05T00:16:32.850Z,24.63
2024-03-05T00:19:37.331Z,25.73
2024-03-05T00:22:39.867Z,24.15
2024-03-05T00:25:43.396Z,25.38
2024-03-05T00:28:46.048Z,21.60
2024-03-05T00:31:48.759Z,27.58
2024-03-05T00:34:52.778Z,21.48
2024-03-05T00:37:55.883Z,29.02
2024-03-05T00:40:58.480Z,30.35
2024-03-05T00:44:01.117Z,29.33
2024-03-05T00:47:03.783Z,30.38
2024-03-05T00:50:09.041Z,24.52
2024-03-05T00:53:11.548Z,23.48
2024-03-05T00:56:14.388Z,29.58
2024-03-05T00:59:16.985Z,26.23
2024-03-05T01:02:19.549Z,29.17
2024-03-05T01:05:23.421Z,28.27
2024-03-05T01:08:25.957Z,26.55
2024-03-05T01:11:28.536Z,24.63
2024-03-05T01:14:32.388Z,30.25
2024-03-05T01:17:35.179Z,31.58
2024-03-05T01:20:42.534Z,28.58
2024-03-05T01:23:45.073Z,26.30
2024-03-05T01:26:47.612Z,24.17
2024-03-05T01:29:51.287Z,27.52
2024-03-05T01:32:57.919Z,32.22
2024-03-05T01:36:01.905Z,28.33
2024-03-05T01:39:05.438Z,27.75
2024-03-05T01:42:08.556Z,31.42
2024-03-05T01:45:11.704Z,27.65
2024-03-05T01:48:15.726Z,28.88
2024-03-05T01:51:21.182Z,28.00
2024-03-05T01:54:24.798Z,31.95
2024-03-05T01:57:28.477Z,32.60
2024-03-05T02:00:32.433Z,31.58
2024-03-05T02:03:35.550Z,33.00
2024-03-05T02:06:42.938Z,28.67
2024-03-05T02:09:46.455Z,30.10
2024-03-05T02:12:48.976Z,26.95
2024-03-05T02:15:51.647Z,29.23
2024-03-05T02:18:56.041Z,29.63
2024-03-05T02:22:02.082Z,32.10
2024-03-05T02:25:04.819Z,29.58
2024-03-05T02:28:09.542Z,25.60
2024-03-05T02:31:12.193Z,25.27
2024-03-05T02:34:14.876Z,30.63
2024-03-05T02:37:19.727Z,27.95
2024-03-05T02:40:22.452Z,25.95
2024-03-05T02:43:25.030Z,28.35
2024-03-05T02:46:27.579Z,27.65
2024-03-05T02:49:30.108Z,25.98
2024-03-05T02:52:34.512Z,27.00
2024-03-05T02:55:40.027Z,24.98
2024-03-05T02:58:43.276Z,24.08
2024-03-05T03:01:48.641Z,30.48
2024-03-05T03:04:52.707Z,25.00
2024-03-05T03:07:56.804Z,24.65
2024-03-05T03:10:59.450Z,32.33
2024-03-05T03:14:04.636Z,26.75
2024-03-05T03:17:08.129Z,26.13
2024-03-05T03:20:16.668Z,27.67
2024-03-05T03:23:20.530Z,28.45
2024-03-05T03:26:23.667Z,23.48
2024-03-05T03:29:27.771Z,21.77
2024-03-05T03:32:30.805Z,27.25
2024-03-05T03:35:33.437Z,21.90
2024-03-05T03:38:37.418Z,30.98
2024-03-05T03:41:41.075Z,24.67
2024-03-05T03:44:44.440Z,27.75
2024-03-05T03:47:47.926Z,34.63
2024-03-05T03:50:50.552Z,25.02
2024-03-05T03:53:55.272Z,28.75
2024-03-05T03:56:57.843Z,26.92
2024-03-05T04:00:01.264Z,22.10
2024-03-05T04:03:04.129Z,30.25
2024-03-05T04:06:06.664Z,25.98
2024-03-05T04:09:14.828Z,30.02
2024-03-05T04:12:17.346Z,31.73
2024-03-05T04:15:20.568Z,27.63
2024-03-05T04:18:23.463Z,27.45
2024-03-05T04:21:26.935Z,27.58
2024-03-05T04:24:32.210Z,25.00
2024-03-05T04:27:36.688Z,27.23
2024-03-05T04:30:40.097Z,25.48
2024-03-05T04:33:44.164Z,31.73
2024-03-05T04:36:46.695Z,28.60
2024-03-05T04:39:50.590Z,29.65
2024-03-05T04:42:53.202Z,27.05
2024-03-05T04:45:55.813Z,26.33
2024-03-05T04:48:58.339Z,33.33
2024-03-05T04:52:00.873Z,31.88
2024-03-05T04:55:05.258Z,33.20
2024-03-05T04:58:09.089Z,29.85
2024-03-05T05:01:11.629Z,31.42
2024-03-05T05:04:14.175Z,29.92
2024-03-05T05:07:17.569Z,26.65
2024-03-05T05:10:21.622Z,32.38
2024-03-05T05:13:24.175Z,31.75
2024-03-05T05:16:27.888Z,33.95
2024-03-05T05:19:30.577Z,31.52
2024-03-05T05:22:33.445Z,38.17
2024-03-05T05:25:38.545Z,30.40
2024-03-05T05:28:41.717Z,31.77
2024-03-05T05:31:45.251Z,32.10
2024-03-05T05:34:47.821Z,29.98
2024-03-05T05:37:50.481Z,35.88
2024-03-05T05:40:54.649Z,34.53
2024-03-05T05:43:57.201Z,31.45
2024-03-05T05:50:18.702Z,34.45
2024-03-05T05:53:21.275Z,35.67
2024-03-05T05:56:25.103Z,35.55
2024-03-05T05:59:28.174Z,40.50
2024-03-05T06:02:30.851Z,36.63
2024-03-05T06:05:36.660Z,34.33
2024-03-05T06:08:39.219Z,33.60
2024-03-05T06:11:44.391Z,35.58
2024-03-05T06:14:46.960Z,32.28
2024-03-05T06:17:50.549Z,40.95
2024-03-05T06:20:53.080Z,29.40
2024-03-05T06:23:55.892Z,37.22
2024-03-05T06:27:00.271Z,38.63
2024-03-05T06:30:02.858Z,31.63
2024-03-05T06:33:09.988Z,30.55
2024-03-05T06:36:13.611Z,33.20
2024-03-05T06:39:21.012Z,34.35
2024-03-05T06:42:25.356Z,30.35
2024-03-05T06:45:29.248Z,34.22
2024-03-05T06:48:34.608Z,35.03
2024-03-05T06:51:43.136Z,28.95
2024-03-05T06:55:03.688Z,29.05
2024-03-05T06:58:08.368Z,34.10
2024-03-05T07:01:11.078Z,36.17
2024-03-05T07:04:13.627Z,29.83
2024-03-05T07:07:16.415Z,34.65
2024-03-05T07:10:22.572Z,30.02
2024-03-05T07:13:29.975Z,25.65
2024-03-05T07:16:33.411Z,29.73
2024-03-05T07:19:36.996Z,30.98
2024-03-05T07:22:41.859Z,25.98
2024-03-05T07:25:44.774Z,31.17
2024-03-05T07:28:49.371Z,27.52
2024-03-05T07:31:52.113Z,26.77
2024-03-05T07:34:54.659Z,25.58
2024-03-05T07:37:58.382Z,31.25
2024-03-05T07:41:01.544Z,25.98
2024-03-05T07:44:06.079Z,25.70
2024-03-05T07:47:08.722Z,28.00
2024-03-05T07:50:13.329Z,26.73
2024-03-05T07:53:15.864Z,29.67
2024-03-05T07:56:18.451Z,25.35
2024-03-05T07:59:23.442Z,22.98
2024-03-05T08:02:26.423Z,27.15
2024-03-05T08:05:30.328Z,25.65
2024-03-05T08:08:33.020Z,27.15
2024-03-05T08:11:36.686Z,28.98
2024-03-05T08:14:40.702Z,24.95
2024-03-05T08:17:46.992Z,25.73
2024-03-05T08:20:49.595Z,30.70
2024-03-05T08:23:54.878Z,21.67
2024-03-05T08:26:59.126Z,26.92
2024-03-05T08:30:03.012Z,23.25
2024-03-05T08:33:06.305Z,23.48
2024-03-05T08:36:09.246Z,24.58
2024-03-05T08:39:18.969Z,23.17
2024-03-05T08:42:22.518Z,28.13
2024-03-05T08:45:26.367Z,23.55
2024-03-05T08:48:29.729Z,20.92
2024-03-05T08:51:32.276Z,25.75
2024-03-05T08:54:35.946Z,24.40
2024-03-05T08:57:38.975Z,20.65
2024-03-05T09:00:43.880Z,25.20
2024-03-05T09:03:46.707Z,19.60
2024-03-05T09:06:49.879Z,19.90
2024-03-05T09:09:52.948Z,24.15
2024-03-05T09:12:56.517Z,21.25
2024-03-05T09:16:00.393Z,16.75
2024-03-05T09:19:02.921Z,18.58
2024-03-05T09:22:06.491Z,21.42
2024-03-05T09:25:09.354Z,15.80
2024-03-05T09:28:12.500Z,17.80
2024-03-05T09:31:18.628Z,22.13
2024-03-05T09:34:21.308Z,16.35
2024-03-05T09:37:24.559Z,16.17
2024-03-05T09:40:27.304Z,22.50
2024-03-05T09:43:31.170Z,17.33
2024-03-05T09:46:35.730Z,16.90
2024-03-05T09:49:38.424Z,14.52
2024-03-05T09:52:41.106Z,13.77
2024-03-05T09:55:44.909Z,13.00
2024-03-05T09:58:49.746Z,14.13
2024-03-05T10:01:53.818Z,15.30
2024-03-05T10:04:57.959Z,17.77
2024-03-05T10:08:00.790Z,19.23
2024-03-05T10:11:04.873Z,15.77
2024-03-05T10:14:09.227Z,15.95
2024-03-05T10:17:13.893Z,13.77
2024-03-05T10:20:29.739Z,18.38
2024-03-05T10:23:32.299Z,14.52
2024-03-05T10:26:36.694Z,14.38
2024-03-05T10:29:40.532Z,16.10
2024-03-05T10:32:44.359Z,14.85
2024-03-05T10:35:51.881Z,14.00
2024-03-05T10:38:55.053Z,12.00
2024-03-05T10:42:00.890Z,12.25
2024-03-05T10:45:03.976Z,13.88
2024-03-05T10:48:11.344Z,27.60
2024-03-05T10:51:17.227Z,33.00
2024-03-05T10:54:20.320Z,16.38
2024-03-05T10:57:22.920Z,13.90
2024-03-05T11:00:25.395Z,12.48
2024-03-05T11:03:39.515Z,13.30
2024-03-05T11:06:42.605Z,15.13
2024-03-05T11:09:45.468Z,16.73
2024-03-05T11:12:49.098Z,15.07
2024-03-05T11:15:52.479Z,22.25
2024-03-05T11:18:57.654Z,13.98
2024-03-05T11:22:03.315Z,14.80
2024-03-05T11:25:07.348Z,11.98
2024-03-05T11:28:12.192Z,14.88
2024-03-05T11:31:19.943Z,18.25
2024-03-05T11:34:25.281Z,13.05
2024-03-05T11:37:27.932Z,13.57
2024-03-05T11:40:33.781Z,16.77
2024-03-05T11:43:36.829Z,12.70
2024-03-05T11:46:49.922Z,16.80
2024-03-05T11:49:54.019Z,16.52
2024-03-05T11:52:56.668Z,15.88
2024-03-05T11:56:09.427Z,14.55
2024-03-05T11:59:13.426Z,15.27
2024-03-05T12:02:16.673Z,18.02
2024-03-05T12:05:20.793Z,21.85
2024-03-05T12:08:24.680Z,21.58
2024-03-05T12:11:27.297Z,19.92
2024-03-05T12:14:30.892Z,26.10
2024-03-05T12:17:34.922Z,16.90
2024-03-05T12:20:39.394Z,16.13
2024-03-05T12:23:43.474Z,19.88
2024-03-05T12:26:46.712Z,15.65
2024-03-05T12:29:50.703Z,17.88
2024-03-05T12:32:55.414Z,23.50
2024-03-05T12:35:59.641Z,14.57
2024-03-05T12:39:02.503Z,19.85
2024-03-05T12:42:07.411Z,17.80
2024-03-05T12:45:13.066Z,21.73
2024-03-05T12:48:15.677Z,16.40
2024-03-05T12:51:19.531Z,18.40
2024-03-05T12:54:22.459Z,16.55
2024-03-05T12:57:25.935Z,19.20
2024-03-05T13:00:28.459Z,15.80
2024-03-05T13:03:30.966Z,16.20
2024-03-05T13:06:35.236Z,14.23
2024-03-05T13:09:39.267Z,17.80
2024-03-05T13:12:43.214Z,13.73
2024-03-05T13:15:45.954Z,14.80
2024-03-05T13:18:49.461Z,15.50
2024-03-05T13:21:53.409Z,15.48
2024-03-05T13:24:56.256Z,16.00
2024-03-05T13:27:59.089Z,20.70
2024-03-05T13:31:01.606Z,16.55
2024-03-05T13:34:05.611Z,18.58
2024-03-05T13:37:10.248Z,15.32
2024-03-05T13:40:14.232Z,15.95
2024-03-05T13:43:16.803Z,14.70
2024-03-05T13:46:19.302Z,16.00
2024-03-05T13:49:25.065Z,16.65
2024-03-05T13:52:29.772Z,16.27
2024-03-05T13:55:32.331Z,14.13
2024-03-05T13:58:36.723Z,15.50
2024-03-05T14:01:40.247Z,15.60
2024-03-05T14:04:43.116Z,16.65
2024-03-05T14:07:48.387Z,16.40
2024-03-05T14:10:52.821Z,16.05
2024-03-05T14:13:55.625Z,14.45
2024-03-05T14:16:58.839Z,12.98
2024-03-05T14:20:01.472Z,18.70
2024-03-05T14:23:05.688Z,14.52
2024-03-05T14:26:09.817Z,15.52
2024-03-05T14:29:12.516Z,13.80
2024-03-05T14:32:15.194Z,17.00
2024-03-05T14:35:24.818Z,15.35
2024-03-05T14:38:32.393Z,17.63
2024-03-05T14:41:34.973Z,17.20
2024-03-05T14:44:38.362Z,18.40
2024-03-05T14:47:41.442Z,19.27
2024-03-05T14:50:44.002Z,17.10
2024-03-05T14:53:47.881Z,19.17
2024-03-05T14:56:50.402Z,20.70
2024-03-05T14:59:52.909Z,19.65
2024-03-05T15:02:55.941Z,17.85
2024-03-05T15:05:58.493Z,17.73
2024-03-05T15:09:02.389Z,16.70
2024-03-05T15:12:05.827Z,17.85
2024-03-05T15:15:10.157Z,18.52
2024-03-05T15:18:12.799Z,19.35
2024-03-05T15:21:16.038Z,20.98
2024-03-05T15:24:19.890Z,21.58
2024-03-05T15:27:23.258Z,23.73
2024-03-05T15:30:28.991Z,24.75
2024-03-05T15:33:33.110Z,22.35
2024-03-05T15:36:35.651Z,20.33
2024-03-05T15:39:39.460Z,20.45
2024-03-05T15:42:42.145Z,23.08
2024-03-05T15:45:44.713Z,17.52
2024-03-05T15:48:47.783Z,18.35
2024-03-05T15:51:50.314Z,17.85
2024-03-05T15:54:54.157Z,16.00
2024-03-05T15:58:09.230Z,14.68
2024-03-05T16:01:13.078Z,14.75
2024-03-05T16:07:24.525Z,13.15
2024-03-05T16:10:35.532Z,13.60
2024-03-05T16:13:41.368Z,12.85
2024-03-05T16:16:45.191Z,16.25
2024-03-05T16:19:47.876Z,25.50
2024-03-05T16:22:53.538Z,18.25
2024-03-05T16:25:58.238Z,15.00
2024-03-05T16:29:01.434Z,12.13
2024-03-05T16:32:04.325Z,11.73
2024-03-05T16:35:07.250Z,16.05
2024-03-05T16:38:10.462Z,16.52
2024-03-05T16:41:15.199Z,20.80
2024-03-05T16:44:17.995Z,24.85
2024-03-05T16:47:20.578Z,21.65
2024-03-05T16:50:27.088Z,22.67
2024-03-05T16:53:30.759Z,19.85
2024-03-05T16:56:34.638Z,17.45
2024-03-05T16:59:37.151Z,16.90
2024-03-05T17:02:44.465Z,19.17
2024-03-05T17:05:51.833Z,21.27
2024-03-05T17:08:56.929Z,19.70
2024-03-05T17:12:01.664Z,19.35
2024-03-05T17:15:07.031Z,20.85
2024-03-05T17:18:10.621Z,23.10
2024-03-05T17:21:14.240Z,19.85
2024-03-05T17:24:16.943Z,19.98
2024-03-05T17:27:21.955Z,19.08
2024-03-05T17:30:24.637Z,22.65
2024-03-05T17:33:27.667Z,19.33
2024-03-05T17:36:30.760Z,22.25
2024-03-05T17:39:33.297Z,19.65
2024-03-05T17:42:37.726Z,17.85
2024-03-05T17:45:40.789Z,18.27
2024-03-05T17:48:43.427Z,16.20
2024-03-05T17:51:46.290Z,17.35
2024-03-05T17:54:50.661Z,19.13
2024-03-05T17:57:54.551Z,13.38
2024-03-05T18:00:57.146Z,15.25
2024-03-05T18:03:59.807Z,14.73
2024-03-05T18:07:05.474Z,16.17
2024-03-05T18:10:09.046Z,17.60
2024-03-05T18:13:14.681Z,13.52
2024-03-05T18:16:19.669Z,16.88
2024-03-05T18:19:22.231Z,13.68
2024-03-05T18:22:25.631Z,15.38
2024-03-05T18:25:35.329Z,13.98
2024-03-05T18:28:41.576Z,16.33
2024-03-05T18:31:49.666Z,15.43
2024-03-05T18:34:52.819Z,21.00
2024-03-05T18:37:56.443Z,30.17
2024-03-05T18:41:01.289Z,31.45
2024-03-05T18:44:05.849Z,27.83
2024-03-05T18:47:11.132Z,26.55
2024-03-05T18:50:15.135Z,20.40
2024-03-05T18:53:17.890Z,17.73
2024-03-05T18:56:20.557Z,19.05
2024-03-05T18:59:27.239Z,13.82
2024-03-05T19:02:29.771Z,17.35
2024-03-05T19:05:32.965Z,14.05
2024-03-05T19:08:35.454Z,16.02
2024-03-05T19:11:38.172Z,13.85
2024-03-05T19:14:42.808Z,14.88
2024-03-05T19:17:48.557Z,14.70
2024-03-05T19:20:51.638Z,17.40
2024-03-05T19:23:54.947Z,19.05
2024-03-05T19:26:57.440Z,18.25
2024-03-05T19:30:01.357Z,14.95
2024-03-05T19:33:03.944Z,16.80
2024-03-05T19:36:09.810Z,19.40
2024-03-05T19:39:14.081Z,16.38
2024-03-05T19:42:17.440Z,14.73
2024-03-05T19:45:21.782Z,15.93
2024-03-05T19:48:26.119Z,16.23
2024-03-05T19:51:29.417Z,14.15
2024-03-05T19:54:32.121Z,23.52
2024-03-05T19:57:35.729Z,14.43
2024-03-05T20:00:39.808Z,21.25
2024-03-05T20:03:42.416Z,19.73
2024-03-05T20:06:45.059Z,20.17
2024-03-05T20:09:48.430Z,19.42
2024-03-05T20:12:51.164Z,22.98
2024-03-05T20:15:56.037Z,20.02
2024-03-05T20:18:58.711Z,18.02
2024-03-05T20:22:01.240Z,17.20
2024-03-05T20:25:04.095Z,23.98
2024-03-05T20:28:10.871Z,15.40
2024-03-05T20:31:14.776Z,16.80
2024-03-05T20:34:18.074Z,23.55
2024-03-05T20:37:21.668Z,18.83
2024-03-05T20:40:28.662Z,25.20
2024-03-05T20:43:31.476Z,18.98
2024-03-05T20:46:36.686Z,19.38
2024-03-05T20:49:39.417Z,19.77
2024-03-05T20:52:42.495Z,22.00
2024-03-05T20:55:45.424Z,20.80
2024-03-05T20:58:48.316Z,23.08
2024-03-05T21:01:54.158Z,20.60
2024-03-05T21:04:56.774Z,24.23
2024-03-05T21:07:59.664Z,24.15
2024-03-05T21:11:02.444Z,23.70
2024-03-05T21:14:05.049Z,18.50
2024-03-05T21:17:08.977Z,22.63
2024-03-05T21:20:12.892Z,17.08
2024-03-05T21:23:18.414Z,22.55
2024-03-05T21:26:35.439Z,18.88
2024-03-05T21:29:43.859Z,20.90
2024-03-05T21:32:47.706Z,23.10
2024-03-05T21:35:50.303Z,21.48
2024-03-05T21:38:52.809Z,24.30
2024-03-05T21:41:57.243Z,22.63
2024-03-05T21:44:59.772Z,27.33
2024-03-05T21:48:04.733Z,20.50
2024-03-05T21:51:12.487Z,19.83
2024-03-05T21:54:22.943Z,24.17
2024-03-05T21:57:25.665Z,19.50
2024-03-05T22:00:30.415Z,19.15
2024-03-05T22:03:34.742Z,25.55
2024-03-05T22:06:37.309Z,22.02
2024-03-05T22:09:41.509Z,23.98
2024-03-05T22:12:44.498Z,19.85
2024-03-05T22:15:47.151Z,29.23
2024-03-05T22:18:50.933Z,20.73
2024-03-05T22:21:53.436Z,23.90
2024-03-05T22:24:56.355Z,22.92
2024-03-05T22:27:58.864Z,21.67
2024-03-05T22:31:01.429Z,25.23
2024-03-05T22:34:05.594Z,26.60
2024-03-05T22:37:08.870Z,23.00
2024-03-05T22:40:13.207Z,23.77
2024-03-05T22:43:15.795Z,21.98
2024-03-05T22:46:18.280Z,24.70
2024-03-05T22:49:22.382Z,23.67
2024-03-05T22:52:24.875Z,22.38
2024-03-05T22:55:27.960Z,26.35
2024-03-05T22:58:30.516Z,24.10
2024-03-05T23:01:33.701Z,20.42
2024-03-05T23:04:37.635Z,21.88
2024-03-05T23:07:40.231Z,18.42
2024-03-05T23:10:42.807Z,22.90
2024-03-05T23:13:45.388Z,23.23
2024-03-05T23:16:49.890Z,25.48
2024-03-05T23:19:53.905Z,23.42
2024-03-05T23:22:56.828Z,18.63
2024-03-05T23:25:59.415Z,19.27
2024-03-05T23:29:02.014Z,20.60
2024-03-05T23:32:04.698Z,23.38
2024-03-05T23:35:09.292Z,17.45
2024-03-05T23:38:11.961Z,24.15
2024-03-05T23:41:24.672Z,20.95
2024-03-05T23:44:34.295Z,25.15
2024-03-05T23:47:37.030Z,21.67
2024-03-05T23:50:41.000Z,21.17
2024-03-05T23:53:43.782Z,21.33
2024-03-05T23:56:46.262Z,23.48
2024-03-05T23:59:48.808Z,22.15
